Time;durP1;ratioP1;P1;durP2;ratioP2;P2;SDS_P1;SDS_P2;PMS_P1;PMS_P2;Temp;Humidity;BMP_temperature;BMP_pressure;BME280_temperature;BME280_humidity;BME280_pressure;Samples;Min_cycle;Max_cycle;Signal;HPM_P1;HPM_P2
2021/07/16 00:02:31;;;;;;;14.57;5.95;;;;;;;;;;4434342;32;20194;-83
2021/07/16 00:04:56;;;;;;;13.02;5.70;;;;;;;;;;4424320;32;20217;-82
2021/07/16 00:07:22;;;;;;;13.40;5.50;;;;;;;;;;4424193;32;20257;-82
2021/07/16 00:09:48;;;;;;;12.43;5.28;;;;;;;;;;4411702;32;20203;-82
2021/07/16 00:12:16;;;;;;;13.80;5.65;;;;;;;;;;4424006;32;20542;-82
2021/07/16 00:14:41;;;;;;;12.98;5.53;;;;;;;;;;4423732;32;20158;-82
2021/07/16 00:17:08;;;;;;;10.27;5.12;;;;;;;;;;4423782;32;20187;-82
2021/07/16 00:19:35;;;;;;;10.77;4.95;;;;;;;;;;4411975;32;20180;-82
2021/07/16 00:22:32;;;;;;;12.13;5.85;;;;;;;;;;4423420;32;20157;-82
2021/07/16 00:26:11;;;;;;;;;;;;;;;;;;;;;
2021/07/16 00:28:30;;;;;;;8.65;4.75;;;;;;;;;;4408986;32;20170;-82
2021/07/16 00:37:48;;;;;;;;;;;;;;;;;;;;;
2021/07/16 00:40:14;;;;;;;13.23;5.90;;;;;;;;;;4390234;32;20605;-82
2021/07/16 00:42:40;;;;;;;13.32;5.80;;;;;;;;;;4406544;32;20158;-82
2021/07/16 00:45:12;;;;;;;10.95;6.18;;;;;;;;;;4408712;32;20208;-82
2021/07/16 00:47:43;;;;;;;14.45;6.18;;;;;;;;;;4408560;32;20232;-82
2021/07/16 00:50:20;;;;;;;14.25;6.10;;;;;;;;;;4408897;32;20138;-82
2021/07/16 00:55:40;;;;;;;14.55;6.25;;;;;;;;;;4421987;32;20149;-82
2021/07/16 00:58:06;;;;;;;15.80;6.22;;;;;;;;;;4407955;32;20347;-82
2021/07/16 01:00:32;;;;;;;16.65;6.80;;;;;;;;;;4408138;32;20282;-82
2021/07/16 01:06:22;;;;;;;16.73;6.45;;;;;;;;;;4347760;33;20148;-82
2021/07/16 01:08:47;;;;;;;15.60;6.53;;;;;;;;;;4396138;32;20170;-81
2021/07/16 01:11:18;;;;;;;19.83;6.30;;;;;;;;;;4405158;32;20188;-81
2021/07/16 01:13:54;;;;;;;;;;;;;;;;;;;;;
2021/07/16 01:16:20;;;;;;;18.62;6.37;;;;;;;;;;4345002;33;20159;-82
2021/07/16 01:18:54;;;;;;;10.57;6.12;;;;;;;;;;4318781;32;20532;-82
2021/07/16 01:21:24;;;;;;;16.58;6.80;;;;;;;;;;4331130;33;20193;-82
2021/07/16 01:24:11;;;;;;;16.67;6.93;;;;;;;;;;4337651;32;20227;-81
2021/07/16 01:26:43;;;;;;;13.15;6.10;;;;;;;;;;4356149;32;20171;-82
2021/07/16 01:29:12;;;;;;;11.65;5.85;;;;;;;;;;4353496;32;20171;-82
2021/07/16 01:31:40;;;;;;;13.93;6.30;;;;;;;;;;4352355;33;20171;-82
2021/07/16 01:34:15;;;;;;;19.25;6.18;;;;;;;;;;4357808;32;20189;-82
2021/07/16 01:36:40;;;;;;;15.00;6.22;;;;;;;;;;4358234;32;20166;-82
2021/07/16 01:39:11;;;;;;;16.27;7.40;;;;;;;;;;4356868;32;20190;-82
2021/07/16 01:44:53;;;;;;;15.13;6.10;;;;;;;;;;4364988;32;20186;-81
2021/07/16 01:47:32;;;;;;;14.48;6.00;;;;;;;;;;4357787;32;20194;-82
2021/07/16 01:50:04;;;;;;;21.10;6.12;;;;;;;;;;4357504;32;20182;-82
2021/07/16 01:52:30;;;;;;;17.45;6.07;;;;;;;;;;4357649;32;20208;-82
2021/07/16 01:58:11;;;;;;;16.73;6.10;;;;;;;;;;4359110;32;20162;-82
2021/07/16 02:03:39;;;;;;;11.38;5.30;;;;;;;;;;4355642;32;20151;-81
2021/07/16 02:06:10;;;;;;;12.77;5.25;;;;;;;;;;4371753;32;20201;-81
2021/07/16 02:08:36;;;;;;;18.02;6.22;;;;;;;;;;4359843;33;20155;-81
2021/07/16 02:11:22;;;;;;;13.55;5.60;;;;;;;;;;4359395;32;20205;-81
2021/07/16 02:14:07;;;;;;;;;;;;;;;;;;;;;
2021/07/16 02:16:35;;;;;;;10.25;4.85;;;;;;;;;;4358874;32;20534;-81
2021/07/16 02:19:22;;;;;;;15.70;4.93;;;;;;;;;;4357818;32;20164;-81
2021/07/16 02:21:57;;;;;;;12.15;5.10;;;;;;;;;;4348180;33;20572;-81
2021/07/16 02:26:55;;;;;;;13.90;5.10;;;;;;;;;;4358465;33;20202;-82
2021/07/16 02:29:26;;;;;;;10.07;5.05;;;;;;;;;;4357622;33;20156;-82
2021/07/16 02:31:52;;;;;;;15.38;5.70;;;;;;;;;;4357692;33;20444;-82
2021/07/16 02:34:24;;;;;;;15.25;5.15;;;;;;;;;;4357081;32;20166;-82
2021/07/16 02:37:00;;;;;;;15.63;5.90;;;;;;;;;;4357636;32;20193;-82
2021/07/16 02:39:38;;;;;;;12.75;4.28;;;;;;;;;;4358930;32;20190;-81
2021/07/16 02:42:04;;;;;;;12.23;4.43;;;;;;;;;;4360037;32;20189;-81
2021/07/16 02:44:51;;;;;;;13.62;4.30;;;;;;;;;;4360007;32;20559;-81
2021/07/16 02:47:20;;;;;;;12.35;4.65;;;;;;;;;;4359385;32;20469;-82
2021/07/16 02:49:45;;;;;;;13.43;4.37;;;;;;;;;;4359865;32;20556;-82
2021/07/16 02:52:16;;;;;;;13.32;4.72;;;;;;;;;;4372798;32;20207;-81
2021/07/16 02:54:41;;;;;;;15.80;4.75;;;;;;;;;;4359683;32;20146;-81
2021/07/16 02:57:10;;;;;;;14.85;4.70;;;;;;;;;;4347376;32;20231;-82
2021/07/16 02:59:35;;;;;;;12.63;4.30;;;;;;;;;;4359274;32;20189;-81
2021/07/16 03:08:20;;;;;;;;;;;;;;;;;;;;;
2021/07/16 03:11:27;;;;;;;;;;;;;;;;;;;;;
2021/07/16 03:13:53;;;;;;;15.90;4.00;;;;;;;;;;4380793;32;20212;-81
2021/07/16 03:16:41;;;;;;;;;;;;;;;;;;;;;
2021/07/16 03:19:30;;;;;;;14.98;4.12;;;;;;;;;;4378721;32;20575;-82
2021/07/16 03:22:04;;;;;;;17.95;4.57;;;;;;;;;;4372944;32;20259;-82
2021/07/16 03:24:30;;;;;;;13.15;4.30;;;;;;;;;;4358855;32;20181;-81
2021/07/16 03:26:58;;;;;;;12.23;3.87;;;;;;;;;;4357131;33;20154;-81
2021/07/16 03:29:23;;;;;;;12.45;4.50;;;;;;;;;;4357665;32;20189;-81
2021/07/16 03:32:15;;;;;;;16.02;4.20;;;;;;;;;;4372560;32;20168;-81
2021/07/16 03:34:44;;;;;;;14.52;4.43;;;;;;;;;;4360635;32;20231;-81
2021/07/16 03:37:09;;;;;;;11.85;4.25;;;;;;;;;;4359194;32;20154;-81
2021/07/16 03:39:34;;;;;;;17.23;4.62;;;;;;;;;;4346896;32;20610;-81
2021/07/16 03:42:03;;;;;;;13.80;4.68;;;;;;;;;;4359018;32;20171;-81
2021/07/16 03:44:29;;;;;;;16.45;4.70;;;;;;;;;;4359217;32;20159;-82
2021/07/16 03:47:11;;;;;;;16.05;4.20;;;;;;;;;;4358887;32;20617;-81
2021/07/16 03:49:57;;;;;;;17.50;4.40;;;;;;;;;;4359147;32;20580;-82
2021/07/16 03:52:41;;;;;;;;;;;;;;;;;;;;;
2021/07/16 03:55:09;;;;;;;17.02;5.07;;;;;;;;;;4372893;32;20594;-81
2021/07/16 03:57:54;;;;;;;13.48;4.15;;;;;;;;;;4358810;32;20610;-82
2021/07/16 04:00:23;;;;;;;13.70;4.30;;;;;;;;;;4358991;32;20208;-81
2021/07/16 04:02:59;;;;;;;;;;;;;;;;;;;;;
2021/07/16 04:05:31;;;;;;;16.80;4.43;;;;;;;;;;4375794;32;20155;-82
2021/07/16 04:11:02;;;;;;;14.23;4.40;;;;;;;;;;4375116;32;20511;-82
2021/07/16 04:14:06;;;;;;;17.30;4.62;;;;;;;;;;4362198;32;20154;-82
2021/07/16 04:16:33;;;;;;;19.85;4.68;;;;;;;;;;4377648;32;20754;-82
2021/07/16 04:19:21;;;;;;;16.08;4.30;;;;;;;;;;4390081;32;20565;-82
2021/07/16 04:21:49;;;;;;;15.32;4.18;;;;;;;;;;4414175;32;20618;-82
2021/07/16 04:24:18;;;;;;;14.63;4.30;;;;;;;;;;4366659;32;20711;-82
2021/07/16 04:26:46;;;;;;;20.98;4.80;;;;;;;;;;4354123;32;20623;-83
2021/07/16 04:32:53;;;;;;;16.20;4.22;;;;;;;;;;4313555;33;20635;-83
2021/07/16 04:35:18;;;;;;;11.27;3.83;;;;;;;;;;4301369;33;20187;-82
2021/07/16 04:37:47;;;;;;;11.93;3.78;;;;;;;;;;4340084;32;20168;-83
2021/07/16 04:40:15;;;;;;;16.30;4.30;;;;;;;;;;4372740;32;20162;-82
2021/07/16 04:42:41;;;;;;;18.05;3.95;;;;;;;;;;4360789;32;20175;-83
2021/07/16 04:45:16;;;;;;;;;;;;;;;;;;;;;
2021/07/16 04:47:42;;;;;;;12.18;3.87;;;;;;;;;;4374537;32;20487;-82
2021/07/16 04:50:08;;;;;;;16.10;4.22;;;;;;;;;;4360800;32;20177;-83
2021/07/16 04:52:38;;;;;;;16.30;4.25;;;;;;;;;;4361056;32;20220;-82
2021/07/16 04:58:31;;;;;;;14.18;4.18;;;;;;;;;;4355578;32;20637;-81
2021/07/16 05:00:57;;;;;;;17.42;3.67;;;;;;;;;;4360911;32;20181;-82
2021/07/16 05:06:28;;;;;;;13.43;3.90;;;;;;;;;;4374438;32;20147;-83
2021/07/16 05:08:53;;;;;;;14.02;3.90;;;;;;;;;;4361004;32;20190;-82
2021/07/16 05:11:36;;;;;;;18.67;4.65;;;;;;;;;;4360411;32;20237;-82
2021/07/16 05:14:04;;;;;;;16.62;4.32;;;;;;;;;;4359991;32;20208;-82
2021/07/16 05:22:32;;;;;;;17.17;3.70;;;;;;;;;;4373794;32;20147;-84
2021/07/16 05:24:59;;;;;;;16.02;3.53;;;;;;;;;;4358220;32;20209;-82
2021/07/16 05:27:51;;;;;;;13.75;3.90;;;;;;;;;;4357759;33;20171;-83
2021/07/16 05:30:29;;;;;;;13.52;3.45;;;;;;;;;;4358339;33;20178;-83
2021/07/16 05:33:04;;;;;;;17.10;4.18;;;;;;;;;;4358408;33;20162;-84
2021/07/16 05:35:29;;;;;;;15.60;3.83;;;;;;;;;;4358210;33;20272;-83
2021/07/16 05:37:55;;;;;;;16.95;3.65;;;;;;;;;;4357820;33;20504;-83
2021/07/16 05:40:25;;;;;;;21.42;4.05;;;;;;;;;;4357629;33;20167;-83
2021/07/16 05:42:50;;;;;;;18.08;3.80;;;;;;;;;;4358098;33;20226;-83
2021/07/16 05:45:16;;;;;;;14.73;3.40;;;;;;;;;;4357681;32;20151;-82
2021/07/16 05:47:41;;;;;;;17.73;3.92;;;;;;;;;;4357608;33;20220;-83
2021/07/16 05:53:02;;;;;;;20.15;4.15;;;;;;;;;;4332678;33;20200;-82
2021/07/16 05:55:29;;;;;;;17.52;3.87;;;;;;;;;;4340409;33;20164;-82
2021/07/16 05:57:58;;;;;;;20.10;4.10;;;;;;;;;;4340575;33;20186;-81
2021/07/16 06:00:26;;;;;;;14.57;3.50;;;;;;;;;;4328745;33;20632;-82
2021/07/16 06:02:51;;;;;;;14.02;3.42;;;;;;;;;;4340688;33;20216;-82
2021/07/16 06:05:46;;;;;;;;;;;;;;;;;;;;;
2021/07/16 06:11:32;;;;;;;11.60;3.22;;;;;;;;;;4356068;32;20554;-83
2021/07/16 06:14:30;;;;;;;;;;;;;;;;;;;;;
2021/07/16 06:17:03;;;;;;;16.98;4.35;;;;;;;;;;4359478;32;20190;-83
2021/07/16 06:19:47;;;;;;;17.17;3.40;;;;;;;;;;4347316;33;20225;-82
2021/07/16 06:22:33;;;;;;;13.55;3.72;;;;;;;;;;4343749;33;20182;-83
2021/07/16 06:25:00;;;;;;;21.20;4.15;;;;;;;;;;4343062;32;20206;-82
2021/07/16 06:27:26;;;;;;;15.93;3.80;;;;;;;;;;4329890;32;20577;-83
2021/07/16 06:29:56;;;;;;;20.73;4.25;;;;;;;;;;4343866;33;20159;-81
2021/07/16 06:32:21;;;;;;;18.75;4.40;;;;;;;;;;4329677;33;20209;-80
2021/07/16 06:34:47;;;;;;;16.48;3.80;;;;;;;;;;4335270;33;20158;-83
2021/07/16 06:37:12;;;;;;;17.33;4.18;;;;;;;;;;4330409;33;20191;-82
2021/07/16 06:39:37;;;;;;;16.83;3.97;;;;;;;;;;4360231;32;20160;-81
2021/07/16 06:42:03;;;;;;;20.92;3.90;;;;;;;;;;4330262;33;20213;-81
2021/07/16 06:44:31;;;;;;;15.02;3.75;;;;;;;;;;4330122;33;20671;-81
2021/07/16 06:46:57;;;;;;;19.30;4.10;;;;;;;;;;4343626;32;20156;-81
2021/07/16 06:49:46;;;;;;;17.35;3.70;;;;;;;;;;4371282;32;20228;-83
2021/07/16 06:52:11;;;;;;;23.70;4.00;;;;;;;;;;4330513;33;20156;-80
2021/07/16 06:54:38;;;;;;;19.75;4.22;;;;;;;;;;4329243;33;20178;-81
2021/07/16 06:57:14;;;;;;;13.70;4.37;;;;;;;;;;4330736;33;20209;-81
2021/07/16 06:59:40;;;;;;;14.10;3.33;;;;;;;;;;4330374;33;20159;-81
2021/07/16 07:02:09;;;;;;;21.58;4.12;;;;;;;;;;4344004;33;20151;-82
2021/07/16 07:04:35;;;;;;;17.62;3.92;;;;;;;;;;4329982;33;20486;-82
2021/07/16 07:07:00;;;;;;;17.30;4.85;;;;;;;;;;4330092;33;20202;-82
2021/07/16 07:09:25;;;;;;;15.77;4.20;;;;;;;;;;4330297;33;20159;-80
2021/07/16 07:12:02;;;;;;;23.12;4.00;;;;;;;;;;4329838;33;20182;-81
2021/07/16 07:14:30;;;;;;;19.90;4.68;;;;;;;;;;4329985;33;20212;-81
2021/07/16 07:16:56;;;;;;;16.48;4.22;;;;;;;;;;4329261;32;20155;-80
2021/07/16 07:19:21;;;;;;;15.93;3.92;;;;;;;;;;4325719;32;20193;-81
2021/07/16 07:24:56;;;;;;;17.12;3.80;;;;;;;;;;4343736;32;20166;-82
2021/07/16 07:27:24;;;;;;;15.80;4.03;;;;;;;;;;4406438;32;20162;-82
2021/07/16 07:30:18;;;;;;;16.42;4.05;;;;;;;;;;4420827;32;20142;-82
2021/07/16 07:32:43;;;;;;;18.58;4.55;;;;;;;;;;4397284;32;20239;-83
2021/07/16 07:35:09;;;;;;;22.83;4.50;;;;;;;;;;4406789;32;20232;-81
2021/07/16 07:37:34;;;;;;;16.92;4.30;;;;;;;;;;4407016;32;20150;-80
2021/07/16 07:40:13;;;;;;;;;;;;;;;;;;;;;
2021/07/16 07:43:16;;;;;;;21.52;4.37;;;;;;;;;;4417657;32;20164;-81
2021/07/16 07:45:41;;;;;;;17.35;4.18;;;;;;;;;;4404077;32;20187;-81
2021/07/16 07:48:07;;;;;;;20.75;4.18;;;;;;;;;;4409230;32;20165;-81
2021/07/16 07:50:40;;;;;;;16.10;3.67;;;;;;;;;;4409011;32;20200;-81
2021/07/16 07:53:05;;;;;;;20.10;4.28;;;;;;;;;;4408786;32;20157;-81
2021/07/16 07:58:31;;;;;;;18.90;3.50;;;;;;;;;;4361269;32;20158;-81
2021/07/16 08:00:57;;;;;;;20.85;4.70;;;;;;;;;;4364129;32;20163;-81
2021/07/16 08:03:34;;;;;;;12.05;3.60;;;;;;;;;;4424065;32;20646;-81
2021/07/16 08:06:03;;;;;;;17.45;3.95;;;;;;;;;;4411232;32;20671;-80
2021/07/16 08:08:28;;;;;;;18.45;4.50;;;;;;;;;;4408216;32;20154;-81
2021/07/16 08:11:02;;;;;;;13.75;3.67;;;;;;;;;;4411645;32;20559;-80
2021/07/16 08:13:28;;;;;;;17.45;4.10;;;;;;;;;;4423267;32;20157;-80
2021/07/16 08:16:01;;;;;;;19.37;4.12;;;;;;;;;;4424194;32;20196;-80
2021/07/16 08:18:39;;;;;;;17.98;4.37;;;;;;;;;;4424222;32;20142;-79
2021/07/16 08:21:13;;;;;;;19.80;4.95;;;;;;;;;;4419478;32;20241;-80
2021/07/16 08:24:46;;;;;;;20.52;4.65;;;;;;;;;;4418389;32;20157;-81
2021/07/16 08:26:42;;;;;;;12.07;3.95;;;;;;;;;;4344702;32;20218;-81
2021/07/16 08:29:13;;;;;;;18.05;4.90;;;;;;;;;;4358531;33;20189;-80
2021/07/16 08:31:44;;;;;;;17.40;4.25;;;;;;;;;;4358408;33;20190;-80
2021/07/16 08:34:35;;;;;;;18.92;4.45;;;;;;;;;;4346850;33;20155;-81
2021/07/16 08:37:22;;;;;;;20.23;4.25;;;;;;;;;;4349302;32;20189;-81
2021/07/16 08:39:58;;;;;;;18.92;4.90;;;;;;;;;;4346282;33;20162;-81
2021/07/16 08:42:24;;;;;;;13.98;4.45;;;;;;;;;;4346635;33;20227;-80
2021/07/16 08:44:57;;;;;;;14.55;4.47;;;;;;;;;;4346680;33;20269;-80
2021/07/16 08:47:28;;;;;;;20.27;4.75;;;;;;;;;;4346650;33;20182;-80
2021/07/16 08:50:08;;;;;;;18.33;4.80;;;;;;;;;;4345665;33;20217;-81
2021/07/16 08:52:56;;;;;;;15.00;4.50;;;;;;;;;;4345770;33;20259;-80
2021/07/16 08:55:23;;;;;;;18.58;4.47;;;;;;;;;;4344868;33;20258;-80
2021/07/16 08:57:51;;;;;;;15.35;4.40;;;;;;;;;;4345558;33;20500;-81
2021/07/16 09:00:16;;;;;;;18.92;4.65;;;;;;;;;;4345747;33;20235;-80
2021/07/16 09:03:00;;;;;;;18.27;4.95;;;;;;;;;;4346187;33;20204;-80
2021/07/16 09:05:39;;;;;;;17.33;4.30;;;;;;;;;;4345384;33;20151;-81
2021/07/16 09:08:33;;;;;;;16.58;4.35;;;;;;;;;;4387531;32;20151;-80
2021/07/16 09:11:13;;;;;;;14.43;4.32;;;;;;;;;;4370784;32;20186;-81
2021/07/16 09:13:58;;;;;;;;;;;;;;;;;;;;;
2021/07/16 09:20:15;;;;;;;15.63;4.53;;;;;;;;;;4374274;32;20212;-82
2021/07/16 09:22:47;;;;;;;16.37;5.05;;;;;;;;;;4330002;32;20200;-80
2021/07/16 09:25:23;;;;;;;14.43;4.15;;;;;;;;;;4373006;32;20213;-81
2021/07/16 09:28:11;;;;;;;15.35;4.28;;;;;;;;;;4384231;32;20189;-81
2021/07/16 09:30:44;;;;;;;18.08;4.55;;;;;;;;;;4388684;32;20165;-81
2021/07/16 09:33:16;;;;;;;21.55;5.60;;;;;;;;;;4389382;32;20228;-81
2021/07/16 09:36:20;;;;;;;;;;;;;;;;;;;;;
2021/07/16 09:39:04;;;;;;;15.95;4.22;;;;;;;;;;4420770;32;20192;-83
2021/07/16 09:44:57;;;;;;;22.05;4.47;;;;;;;;;;4355209;32;20326;-80
2021/07/16 09:47:34;;;;;;;16.60;4.22;;;;;;;;;;4385608;32;20189;-77
2021/07/16 09:50:15;;;;;;;;;;;;;;;;;;;;;
2021/07/16 09:53:03;;;;;;;17.30;4.78;;;;;;;;;;4343610;33;20173;-81
2021/07/16 09:55:41;;;;;;;19.33;4.75;;;;;;;;;;4340858;32;20182;-81
2021/07/16 09:58:21;;;;;;;13.10;4.20;;;;;;;;;;4376630;32;20488;-81
2021/07/16 10:00:49;;;;;;;14.13;4.18;;;;;;;;;;4379187;32;20194;-81
2021/07/16 10:03:24;;;;;;;13.62;4.50;;;;;;;;;;4381077;32;20159;-81
2021/07/16 10:05:50;;;;;;;18.23;4.35;;;;;;;;;;4405953;32;20152;-82
2021/07/16 10:08:33;;;;;;;21.15;4.78;;;;;;;;;;4406855;32;20378;-82
2021/07/16 10:11:00;;;;;;;18.90;4.40;;;;;;;;;;4389942;32;20158;-82
2021/07/16 10:13:26;;;;;;;15.48;4.60;;;;;;;;;;4392422;32;20176;-83
2021/07/16 10:15:52;;;;;;;20.02;5.55;;;;;;;;;;4391963;32;20170;-81
2021/07/16 10:18:25;;;;;;;17.92;5.00;;;;;;;;;;4391959;32;20211;-81
2021/07/16 10:21:02;;;;;;;16.17;4.95;;;;;;;;;;4392192;32;20176;-83
2021/07/16 10:23:28;;;;;;;19.17;4.93;;;;;;;;;;4391938;32;20189;-82
2021/07/16 10:26:02;;;;;;;18.73;4.97;;;;;;;;;;4391724;32;20264;-80
2021/07/16 10:28:50;;;;;;;12.75;4.55;;;;;;;;;;4391808;32;20165;-81
2021/07/16 10:31:39;;;;;;;17.48;4.47;;;;;;;;;;4351235;32;20159;-81
2021/07/16 10:34:42;;;;;;;18.33;4.22;;;;;;;;;;4357289;33;20181;-82
2021/07/16 10:37:16;;;;;;;17.48;4.55;;;;;;;;;;4329329;33;20182;-82
2021/07/16 10:40:10;;;;;;;14.07;4.65;;;;;;;;;;4353208;33;20285;-82
2021/07/16 10:42:40;;;;;;;15.70;4.37;;;;;;;;;;4358735;32;20175;-80
2021/07/16 10:45:28;;;;;;;14.90;4.03;;;;;;;;;;4357504;33;20212;-81
2021/07/16 10:48:16;;;;;;;16.15;4.85;;;;;;;;;;4358467;33;20159;-80
2021/07/16 10:50:42;;;;;;;17.48;4.80;;;;;;;;;;4358577;33;20459;-81
2021/07/16 10:53:37;;;;;;;15.10;4.50;;;;;;;;;;4356738;33;20155;-81
2021/07/16 10:56:10;;;;;;;20.45;5.00;;;;;;;;;;4365337;32;20176;-81
2021/07/16 10:59:14;;;;;;;16.67;4.60;;;;;;;;;;4420071;32;20586;-81
2021/07/16 11:01:41;;;;;;;17.50;5.03;;;;;;;;;;4402836;32;20177;-81
2021/07/16 11:04:26;;;;;;;15.95;4.53;;;;;;;;;;4394966;32;20152;-81
2021/07/16 11:06:57;;;;;;;17.62;5.15;;;;;;;;;;4406626;32;20167;-81
2021/07/16 11:09:34;;;;;;;15.70;4.25;;;;;;;;;;4343635;33;20127;-81
2021/07/16 11:12:19;;;;;;;13.62;4.75;;;;;;;;;;4394468;32;20163;-80
2021/07/16 11:14:44;;;;;;;14.55;4.57;;;;;;;;;;4361650;32;20193;-80
2021/07/16 11:17:10;;;;;;;24.20;5.80;;;;;;;;;;4394371;32;20186;-82
2021/07/16 11:19:36;;;;;;;21.15;5.32;;;;;;;;;;4349278;32;20163;-81
2021/07/16 11:22:05;;;;;;;18.48;4.72;;;;;;;;;;4346597;33;20155;-81
2021/07/16 11:24:35;;;;;;;17.10;4.60;;;;;;;;;;4347219;32;20234;-81
2021/07/16 11:27:03;;;;;;;15.68;4.45;;;;;;;;;;4333412;32;20564;-80
2021/07/16 11:29:40;;;;;;;15.00;4.90;;;;;;;;;;4346979;32;20175;-80
2021/07/16 11:32:05;;;;;;;14.90;4.37;;;;;;;;;;4347164;32;20233;-80
2021/07/16 11:34:31;;;;;;;15.48;4.60;;;;;;;;;;4346757;33;20152;-81
2021/07/16 11:36:59;;;;;;;16.10;4.90;;;;;;;;;;4346567;33;20159;-82
2021/07/16 11:39:38;;;;;;;19.58;4.85;;;;;;;;;;4347045;32;20183;-81
2021/07/16 11:42:26;;;;;;;16.33;4.60;;;;;;;;;;4346223;32;20232;-80
2021/07/16 11:44:54;;;;;;;16.10;4.57;;;;;;;;;;4347236;33;20148;-80
2021/07/16 11:47:20;;;;;;;15.70;4.62;;;;;;;;;;4347531;33;20151;-80
2021/07/16 11:49:50;;;;;;;18.05;4.60;;;;;;;;;;4347302;33;20155;-81
2021/07/16 11:52:24;;;;;;;17.25;4.80;;;;;;;;;;4347032;32;20215;-81
2021/07/16 11:55:01;;;;;;;18.62;5.00;;;;;;;;;;4346888;32;20163;-82
2021/07/16 11:57:26;;;;;;;17.05;4.68;;;;;;;;;;4419500;32;20231;-82
2021/07/16 11:59:57;;;;;;;20.42;5.53;;;;;;;;;;4424533;32;20472;-80
2021/07/16 12:02:23;;;;;;;17.98;4.47;;;;;;;;;;4424322;32;20519;-81
2021/07/16 12:05:34;;;;;;;;;;;;;;;;;;;;;
2021/07/16 12:08:02;;;;;;;14.98;4.50;;;;;;;;;;4360050;33;20233;-75
2021/07/16 12:13:40;;;;;;;15.95;4.60;;;;;;;;;;4342961;33;20209;-80
2021/07/16 12:16:17;;;;;;;15.70;5.10;;;;;;;;;;4388301;32;20161;-82
2021/07/16 12:19:05;;;;;;;16.20;4.93;;;;;;;;;;4423283;32;20257;-82
2021/07/16 12:21:41;;;;;;;19.05;5.35;;;;;;;;;;4423462;32;20166;-81
2021/07/16 12:27:07;;;;;;;14.98;4.43;;;;;;;;;;4426324;32;20203;-79
2021/07/16 12:29:35;;;;;;;14.52;4.78;;;;;;;;;;4423282;32;20177;-79
2021/07/16 12:32:03;;;;;;;17.40;4.97;;;;;;;;;;4437937;32;20145;-81
2021/07/16 12:34:34;;;;;;;16.70;4.78;;;;;;;;;;4423917;32;20601;-83
2021/07/16 12:37:10;;;;;;;16.60;4.62;;;;;;;;;;4389860;32;20227;-80
2021/07/16 12:39:35;;;;;;;18.95;4.93;;;;;;;;;;4370491;32;20166;-81
2021/07/16 12:42:27;;;;;;;17.67;4.75;;;;;;;;;;4358188;33;20155;-81
2021/07/16 12:45:11;;;;;;;19.17;5.05;;;;;;;;;;4356868;32;20186;-82
2021/07/16 12:47:47;;;;;;;19.23;4.82;;;;;;;;;;4358332;33;20235;-81
2021/07/16 12:50:13;;;;;;;13.30;4.75;;;;;;;;;;4357980;32;20166;-81
2021/07/16 12:53:02;;;;;;;19.17;4.90;;;;;;;;;;4373872;32;20155;-81
2021/07/16 12:55:34;;;;;;;12.82;4.15;;;;;;;;;;4360454;32;20174;-80
2021/07/16 12:58:07;;;;;;;17.77;4.25;;;;;;;;;;4360533;32;20159;-80
2021/07/16 13:01:04;;;;;;;15.13;4.43;;;;;;;;;;4360746;32;20207;-80
2021/07/16 13:03:36;;;;;;;13.40;4.45;;;;;;;;;;4360868;32;20162;-81
2021/07/16 13:06:16;;;;;;;17.15;5.05;;;;;;;;;;4361078;32;20183;-82
2021/07/16 13:08:41;;;;;;;17.87;5.28;;;;;;;;;;4360257;32;20167;-81
2021/07/16 13:11:11;;;;;;;17.27;4.10;;;;;;;;;;4360623;32;20239;-80
2021/07/16 13:13:37;;;;;;;17.50;4.40;;;;;;;;;;4360478;32;20250;-80
2021/07/16 13:16:11;;;;;;;16.87;4.68;;;;;;;;;;4359907;32;20226;-81
2021/07/16 13:18:46;;;;;;;13.35;4.47;;;;;;;;;;4360093;32;20181;-80
2021/07/16 13:21:19;;;;;;;15.30;4.22;;;;;;;;;;4344973;33;20167;-81
2021/07/16 13:23:46;;;;;;;12.32;4.62;;;;;;;;;;4345288;33;20171;-81
2021/07/16 13:26:14;;;;;;;19.45;4.45;;;;;;;;;;4359260;32;20178;-81
2021/07/16 13:28:40;;;;;;;14.35;4.53;;;;;;;;;;4344185;33;20176;-80
2021/07/16 13:31:11;;;;;;;14.23;4.40;;;;;;;;;;4344440;33;20159;-82
2021/07/16 13:33:40;;;;;;;11.93;4.65;;;;;;;;;;4358981;33;20537;-80
2021/07/16 13:36:06;;;;;;;15.10;4.25;;;;;;;;;;4358704;32;20140;-79
2021/07/16 13:38:35;;;;;;;17.35;5.43;;;;;;;;;;4358752;33;20151;-80
2021/07/16 13:41:18;;;;;;;11.02;4.37;;;;;;;;;;4338134;32;20198;-81
2021/07/16 13:43:44;;;;;;;18.00;4.20;;;;;;;;;;4346045;32;20198;-81
2021/07/16 13:46:10;;;;;;;13.27;4.45;;;;;;;;;;4356591;33;20565;-81
2021/07/16 13:48:41;;;;;;;13.20;4.60;;;;;;;;;;4354773;32;20162;-79
2021/07/16 13:51:09;;;;;;;17.02;5.22;;;;;;;;;;4355542;32;20149;-81
2021/07/16 13:53:45;;;;;;;14.20;4.53;;;;;;;;;;4345151;32;20162;-79
2021/07/16 13:56:10;;;;;;;18.98;4.72;;;;;;;;;;4345577;32;20171;-80
2021/07/16 13:58:56;;;;;;;15.82;4.62;;;;;;;;;;4344965;33;20178;-80
2021/07/16 14:01:23;;;;;;;15.48;4.40;;;;;;;;;;4343126;33;20182;-81
2021/07/16 14:04:07;;;;;;;11.65;3.85;;;;;;;;;;4358706;32;20135;-81
2021/07/16 14:06:36;;;;;;;12.15;4.30;;;;;;;;;;4345232;32;20155;-82
2021/07/16 14:09:08;;;;;;;12.40;3.85;;;;;;;;;;4345195;33;20557;-80
2021/07/16 14:11:34;;;;;;;14.85;4.50;;;;;;;;;;4345204;33;20190;-80
2021/07/16 14:14:00;;;;;;;13.82;4.28;;;;;;;;;;4344326;33;20167;-79
2021/07/16 14:16:36;;;;;;;19.10;4.40;;;;;;;;;;4344253;33;20175;-81
2021/07/16 14:19:05;;;;;;;14.00;4.68;;;;;;;;;;4333071;33;20158;-82
2021/07/16 14:24:36;;;;;;;20.67;4.45;;;;;;;;;;4354709;32;20207;-81
2021/07/16 14:27:01;;;;;;;10.93;4.15;;;;;;;;;;4344358;32;20151;-81
2021/07/16 14:29:27;;;;;;;19.90;5.50;;;;;;;;;;4373407;32;20665;-81
2021/07/16 14:32:10;;;;;;;13.95;4.05;;;;;;;;;;4406618;32;20181;-80
2021/07/16 14:34:46;;;;;;;17.90;4.97;;;;;;;;;;4406657;32;20150;-82
2021/07/16 14:37:11;;;;;;;14.85;4.57;;;;;;;;;;4404994;32;20189;-81
2021/07/16 14:39:37;;;;;;;18.25;4.68;;;;;;;;;;4420233;32;20126;-80
2021/07/16 14:42:11;;;;;;;14.20;4.65;;;;;;;;;;4405909;32;20650;-81
2021/07/16 14:44:44;;;;;;;14.60;3.87;;;;;;;;;;4386932;32;20246;-80
2021/07/16 14:47:12;;;;;;;12.90;4.35;;;;;;;;;;4401166;32;20528;-81
2021/07/16 14:49:52;;;;;;;16.55;4.60;;;;;;;;;;4408622;32;20154;-82
2021/07/16 14:52:26;;;;;;;17.55;5.03;;;;;;;;;;4415667;32;20187;-81
2021/07/16 14:54:55;;;;;;;13.23;4.78;;;;;;;;;;4409195;32;20158;-80
2021/07/16 14:57:20;;;;;;;16.75;5.00;;;;;;;;;;4408551;32;20248;-81
2021/07/16 15:00:11;;;;;;;;;;;;;;;;;;;;;
2021/07/16 15:02:36;;;;;;;20.55;5.30;;;;;;;;;;4391371;32;20168;-81
2021/07/16 15:05:18;;;;;;;17.45;5.12;;;;;;;;;;4406130;32;20150;-81
2021/07/16 15:08:09;;;;;;;25.33;5.10;;;;;;;;;;4406734;32;20189;-81
2021/07/16 15:10:35;;;;;;;14.30;4.93;;;;;;;;;;4399198;32;20165;-80
2021/07/16 15:13:22;;;;;;;16.87;5.53;;;;;;;;;;4383832;32;20614;-81
2021/07/16 15:15:58;;;;;;;18.48;5.35;;;;;;;;;;4397106;32;20165;-80
2021/07/16 15:18:23;;;;;;;17.37;4.85;;;;;;;;;;4413599;32;20637;-82
2021/07/16 15:23:41;;;;;;;20.85;5.50;;;;;;;;;;4400075;32;20237;-80
2021/07/16 15:26:06;;;;;;;17.65;4.87;;;;;;;;;;4406217;32;20162;-80
2021/07/16 15:29:10;;;;;;;13.90;4.57;;;;;;;;;;4396416;32;20233;-81
2021/07/16 15:34:48;;;;;;;19.02;5.18;;;;;;;;;;4349698;33;20569;-81
2021/07/16 15:37:28;;;;;;;16.90;5.57;;;;;;;;;;4389892;32;20230;-81
2021/07/16 15:40:05;;;;;;;;;;;;;;;;;;;;;
2021/07/16 15:42:34;;;;;;;16.58;5.15;;;;;;;;;;4403390;32;20638;-81
2021/07/16 15:45:12;;;;;;;13.93;4.90;;;;;;;;;;4389824;32;20166;-81
2021/07/16 15:48:06;;;;;;;;;;;;;;;;;;;;;
2021/07/16 15:50:34;;;;;;;17.98;5.60;;;;;;;;;;4403090;32;20131;-81
2021/07/16 15:53:08;;;;;;;16.77;5.47;;;;;;;;;;4390360;32;20654;-81
2021/07/16 15:56:09;;;;;;;;;;;;;;;;;;;;;
2021/07/16 15:58:37;;;;;;;18.95;5.03;;;;;;;;;;4403557;32;20150;-81
2021/07/16 16:01:21;;;;;;;20.42;4.97;;;;;;;;;;4392865;32;20355;-81
2021/07/16 16:03:46;;;;;;;21.00;5.20;;;;;;;;;;4403122;32;20271;-81
2021/07/16 16:06:21;;;;;;;18.48;5.45;;;;;;;;;;4390000;32;20528;-79
2021/07/16 16:08:47;;;;;;;15.68;4.72;;;;;;;;;;4406252;32;20479;-82
2021/07/16 16:17:00;;;;;;;18.52;5.47;;;;;;;;;;4344944;33;20150;-80
2021/07/16 16:19:25;;;;;;;17.10;5.15;;;;;;;;;;4343452;32;20468;-81
2021/07/16 16:24:45;;;;;;;22.92;5.90;;;;;;;;;;4344864;33;20204;-80
2021/07/16 16:27:16;;;;;;;16.12;5.20;;;;;;;;;;4344181;33;20151;-83
2021/07/16 16:32:49;;;;;;;15.65;4.82;;;;;;;;;;4374778;32;20191;-81
2021/07/16 16:35:15;;;;;;;17.73;5.20;;;;;;;;;;4362055;32;20178;-80
2021/07/16 16:37:52;;;;;;;16.85;5.30;;;;;;;;;;4374916;32;20189;-81
2021/07/16 16:40:30;;;;;;;;;;;;;;;;;;;;;
2021/07/16 16:42:56;;;;;;;16.65;5.30;;;;;;;;;;4383816;32;20166;-81
2021/07/16 16:45:22;;;;;;;19.20;5.35;;;;;;;;;;4422037;32;20157;-81
2021/07/16 16:47:53;;;;;;;20.52;5.50;;;;;;;;;;4408008;32;20191;-81
2021/07/16 16:50:19;;;;;;;20.90;5.47;;;;;;;;;;4407831;32;20158;-81
2021/07/16 16:52:44;;;;;;;19.20;5.97;;;;;;;;;;4395511;32;20535;-81
2021/07/16 16:55:12;;;;;;;17.70;5.43;;;;;;;;;;4402347;32;20514;-80
2021/07/16 16:57:45;;;;;;;17.92;5.25;;;;;;;;;;4399699;32;20524;-81
2021/07/16 17:03:49;;;;;;;;;;;;;;;;;;;;;
2021/07/16 17:06:25;;;;;;;19.35;5.40;;;;;;;;;;4415239;32;20170;-80
2021/07/16 17:09:02;;;;;;;17.50;5.50;;;;;;;;;;4405379;32;20468;-81
2021/07/16 17:11:35;;;;;;;19.12;5.85;;;;;;;;;;4420789;32;20255;-84